Time;durP1;ratioP1;P1;durP2;ratioP2;P2;SDS_P1;SDS_P2;PMS_P1;PMS_P2;Temp;Humidity;BMP_temperature;BMP_pressure;BME280_temperature;BME280_humidity;BME280_pressure;Samples;Min_cycle;Max_cycle;Signal;HPM_P1;HPM_P2
2022/11/12 00:02:10;;;;;;;;;26.00;24.25;;;;;13.42;61.88;102341.94;5080165;27;71545;-46
2022/11/12 00:04:36;;;;;;;;;27.00;23.50;;;;;13.43;61.70;102338.44;5079297;27;58090;-44
2022/11/12 00:07:01;;;;;;;;;22.00;19.25;;;;;13.43;61.77;102331.41;5078800;28;45383;-46
2022/11/12 00:09:26;;;;;;;;;22.00;21.25;;;;;13.43;61.73;102334.03;5079712;27;67865;-46
2022/11/12 00:11:52;;;;;;;;;22.75;19.00;;;;;13.42;61.64;102334.94;5080626;27;60742;-45
2022/11/12 00:14:17;;;;;;;;;25.25;21.00;;;;;13.42;62.01;102334.06;5076915;27;45306;-48
2022/11/12 00:16:42;;;;;;;;;24.25;21.25;;;;;13.39;62.25;102339.38;5079056;27;61746;-46
2022/11/12 00:19:08;;;;;;;;;23.75;22.00;;;;;13.37;62.03;102347.28;5043547;27;47397;-46
2022/11/12 00:21:33;;;;;;;;;29.75;26.50;;;;;13.35;62.13;102345.53;5079358;27;45311;-45
2022/11/12 00:23:59;;;;;;;;;23.25;22.00;;;;;13.34;62.05;102347.31;5068438;28;62200;-46
2022/11/12 00:26:24;;;;;;;;;21.25;20.25;;;;;13.33;61.90;102350.81;5080798;28;45560;-45
2022/11/12 00:28:49;;;;;;;;;27.75;25.50;;;;;13.31;62.17;102344.72;5076275;27;75554;-45
2022/11/12 00:31:15;;;;;;;;;29.75;23.50;;;;;13.26;62.36;102346.50;5079457;27;65312;-45
2022/11/12 00:33:41;;;;;;;;;28.75;24.00;;;;;13.22;62.65;102352.69;5085459;27;45372;-47
2022/11/12 00:36:08;;;;;;;;;30.50;24.00;;;;;13.20;62.00;102344.81;5084165;27;45431;-46
2022/11/12 00:38:33;;;;;;;;;33.25;23.25;;;;;13.18;62.17;102341.34;5078184;28;46421;-47
2022/11/12 00:40:59;;;;;;;;;29.00;22.50;;;;;13.13;62.11;102342.28;5075439;27;70607;-48
2022/11/12 00:43:24;;;;;;;;;26.50;23.00;;;;;13.07;62.52;102335.34;5080591;27;45327;-44
2022/11/12 00:45:49;;;;;;;;;25.75;22.75;;;;;13.02;62.64;102334.53;5065955;27;66998;-44
2022/11/12 00:48:15;;;;;;;;;26.75;21.50;;;;;12.99;62.35;102334.56;5073187;27;71268;-44
2022/11/12 00:50:40;;;;;;;;;27.00;23.25;;;;;12.92;62.74;102341.63;5072025;27;45374;-44
2022/11/12 00:53:06;;;;;;;;;30.00;23.75;;;;;12.87;62.85;102332.94;5076755;27;45343;-44
2022/11/12 00:55:31;;;;;;;;;29.00;24.50;;;;;12.85;62.85;102329.44;5079354;27;73038;-46
2022/11/12 00:57:58;;;;;;;;;21.00;21.00;;;;;12.86;62.80;102328.56;5069901;28;66380;-44
2022/11/12 01:00:23;;;;;;;;;27.25;22.50;;;;;12.82;63.09;102327.75;5090102;27;45236;-44
2022/11/12 01:02:48;;;;;;;;;24.50;21.25;;;;;12.85;63.13;102334.72;5075341;27;45779;-44
2022/11/12 01:05:14;;;;;;;;;29.75;22.75;;;;;12.84;63.21;102328.59;5076860;27;45532;-43
2022/11/12 01:07:40;;;;;;;;;19.50;18.75;;;;;12.83;63.05;102329.47;5069994;27;50847;-44
2022/11/12 01:10:06;;;;;;;;;20.75;20.50;;;;;12.84;63.57;102330.34;5073746;27;45295;-45
2022/11/12 01:12:31;;;;;;;;;25.75;21.25;;;;;12.84;63.39;102325.97;5067377;27;45453;-49
2022/11/12 01:14:57;;;;;;;;;26.25;19.25;;;;;12.87;63.35;102327.66;5076934;27;45570;-45
2022/11/12 01:17:22;;;;;;;;;21.25;19.75;;;;;12.88;63.58;102322.41;5074852;27;58952;-45
2022/11/12 01:19:48;;;;;;;;;16.75;16.00;;;;;12.87;63.30;102318.06;5066604;27;61713;-45
2022/11/12 01:22:14;;;;;;;;;24.00;17.75;;;;;12.84;63.51;102322.47;5073927;27;45654;-44
2022/11/12 01:24:39;;;;;;;;;20.00;18.00;;;;;12.81;63.41;102323.38;5074999;27;62751;-44
2022/11/12 01:27:05;;;;;;;;;26.50;19.50;;;;;12.80;63.36;102318.13;5074648;27;66072;-44
2022/11/12 01:29:30;;;;;;;;;21.75;19.75;;;;;12.75;63.57;102314.66;5079073;28;45429;-44
2022/11/12 01:31:55;;;;;;;;;22.50;19.00;;;;;12.73;63.85;102304.19;5071932;27;45679;-49
2022/11/12 01:34:21;;;;;;;;;22.00;20.00;;;;;12.77;63.83;102308.53;5078422;27;45374;-45
2022/11/12 01:36:46;;;;;;;;;22.75;17.00;;;;;12.80;63.45;102305.88;5076530;28;46212;-45
2022/11/12 01:39:11;;;;;;;;;21.25;18.75;;;;;12.83;63.60;102305.81;5064193;27;45246;-44
2022/11/12 01:41:38;;;;;;;;;23.00;20.25;;;;;12.85;63.38;102308.44;5069901;28;45284;-47
2022/11/12 01:44:21;;;;;;;;;18.25;17.75;;;;;12.84;63.51;102304.09;5075331;27;45506;-50
2022/11/12 01:46:46;;;;;;;;;19.50;16.00;;;;;12.85;63.23;102304.03;5070695;27;46259;-48
2022/11/12 01:49:24;;;;;;;;;23.33;17.67;;;;;12.83;63.63;102305.81;5072432;27;45516;-48
2022/11/12 01:51:51;;;;;;;;;23.25;22.25;;;;;12.82;63.45;102296.22;5068792;27;45453;-48
2022/11/12 01:54:19;;;;;;;;;21.25;17.25;;;;;12.81;63.53;102299.72;5076709;27;45469;-45
2022/11/12 01:56:45;;;;;;;;;23.75;19.00;;;;;12.80;63.17;102295.38;5077674;28;46539;-43
2022/11/12 01:59:16;;;;;;;;;14.25;13.25;;;;;12.80;63.55;102283.97;5075035;27;56943;-45
2022/11/12 02:01:42;;;;;;;;;21.75;18.00;;;;;12.80;63.54;102290.13;5069467;27;45351;-45
2022/11/12 02:04:07;;;;;;;;;22.00;18.50;;;;;12.80;63.62;102289.22;5077065;27;45459;-45
2022/11/12 02:06:33;;;;;;;;;20.75;19.00;;;;;12.78;63.30;102293.63;5067917;28;56182;-47
2022/11/12 02:08:59;;;;;;;;;17.25;16.00;;;;;12.75;63.86;102288.41;5067326;28;66584;-49
2022/11/12 02:11:24;;;;;;;;;22.75;19.25;;;;;12.72;63.60;102290.19;5074863;27;69349;-46
2022/11/12 02:13:57;;;;;;;;;23.25;17.25;;;;;12.72;63.83;102295.44;5070866;27;60535;-48
2022/11/12 02:16:29;;;;;;;;;20.50;18.25;;;;;12.75;63.96;102296.28;5067926;27;45459;-43
2022/11/12 02:18:54;;;;;;;;;19.50;16.50;;;;;12.75;63.68;102305.06;5069876;27;45194;-45
2022/11/12 02:21:21;;;;;;;;;23.25;20.25;;;;;12.73;63.53;102310.31;5074968;27;67425;-43
2022/11/12 02:23:46;;;;;;;;;20.25;16.25;;;;;12.70;63.30;102307.72;5072951;27;45587;-43
2022/11/12 02:26:12;;;;;;;;;19.00;16.25;;;;;12.69;63.87;102311.22;5077922;27;70907;-43
2022/11/12 02:28:37;;;;;;;;;23.25;17.25;;;;;12.68;63.87;102309.50;5073647;28;62310;-43
2022/11/12 02:31:02;;;;;;;;;18.75;16.25;;;;;12.67;63.83;102299.84;5074840;28;52779;-45
2022/11/12 02:33:28;;;;;;;;;18.25;17.00;;;;;12.69;63.96;102291.97;5078285;27;65677;-44
2022/11/12 02:35:53;;;;;;;;;18.25;17.25;;;;;12.70;63.88;102291.09;5078037;27;45930;-45
2022/11/12 02:38:18;;;;;;;;;24.50;22.00;;;;;12.73;63.65;102289.31;5080405;27;45258;-45
2022/11/12 02:40:44;;;;;;;;;20.00;14.00;;;;;12.75;63.92;102285.78;5083668;27;45380;-45
2022/11/12 02:43:09;;;;;;;;;17.50;14.50;;;;;12.75;63.74;102285.78;5081705;27;45343;-44
2022/11/12 02:45:34;;;;;;;;;17.50;16.25;;;;;12.76;63.79;102285.75;5079878;27;45357;-46
2022/11/12 02:48:00;;;;;;;;;19.75;16.25;;;;;12.77;63.80;102286.66;5077699;27;46687;-46
2022/11/12 02:50:25;;;;;;;;;20.75;16.50;;;;;12.75;63.71;102285.78;5080076;27;45441;-44
2022/11/12 02:52:51;;;;;;;;;14.50;13.00;;;;;12.73;63.53;102275.31;5076543;27;69230;-47
2022/11/12 02:55:16;;;;;;;;;15.75;13.50;;;;;12.73;63.51;102273.53;5073627;27;74925;-46
2022/11/12 02:57:41;;;;;;;;;16.50;12.75;;;;;12.75;63.39;102280.50;5076496;27;45385;-48
2022/11/12 03:00:09;;;;;;;;;23.50;18.50;;;;;12.72;63.42;102281.44;5062728;28;45300;-44
2022/11/12 03:02:41;;;;;;;;;15.25;13.75;;;;;12.69;63.88;102279.69;5077228;27;45497;-48
2022/11/12 03:05:10;;;;;;;;;19.75;17.75;;;;;12.68;63.66;102280.59;5080845;27;46528;-44
2022/11/12 03:07:35;;;;;;;;;25.75;17.75;;;;;12.67;63.89;102275.34;5080599;27;45930;-46
2022/11/12 03:10:01;;;;;;;;;20.75;17.00;;;;;12.65;63.90;102277.13;5078873;27;60068;-51
2022/11/12 03:12:26;;;;;;;;;18.00;17.00;;;;;12.63;63.75;102269.28;5078043;28;58166;-47
2022/11/12 03:14:51;;;;;;;;;24.50;19.75;;;;;12.60;63.78;102266.66;5075401;27;69380;-45
2022/11/12 03:17:16;;;;;;;;;19.75;16.75;;;;;12.63;63.82;102271.03;5074514;27;71913;-45
2022/11/12 03:19:42;;;;;;;;;22.50;18.00;;;;;12.63;64.01;102271.91;5077980;27;61756;-46
2022/11/12 03:22:07;;;;;;;;;19.00;15.50;;;;;12.63;63.82;102271.91;5078352;27;67350;-49
2022/11/12 03:24:32;;;;;;;;;17.75;17.75;;;;;12.63;63.80;102261.41;5079940;27;64002;-48
2022/11/12 03:26:58;;;;;;;;;20.25;16.75;;;;;12.66;63.70;102263.09;5069445;27;62424;-44
2022/11/12 03:29:25;;;;;;;;;23.25;21.00;;;;;12.64;63.65;102265.78;5077984;27;45234;-48
2022/11/12 03:31:50;;;;;;;;;22.00;16.25;;;;;12.62;63.66;102259.63;5066068;27;45648;-45
2022/11/12 03:34:15;;;;;;;;;17.50;15.50;;;;;12.59;63.65;102259.69;5077380;28;66316;-49
2022/11/12 03:36:40;;;;;;;;;15.75;14.25;;;;;12.58;63.75;102252.69;5078117;27;54538;-46
2022/11/12 03:39:06;;;;;;;;;17.50;15.00;;;;;12.56;63.47;102257.09;5080114;27;65770;-49
2022/11/12 03:41:31;;;;;;;;;17.00;15.00;;;;;12.49;63.83;102256.28;5070204;27;46381;-44
2022/11/12 03:43:56;;;;;;;;;21.75;17.75;;;;;12.42;63.45;102257.22;5072949;27;66857;-46
2022/11/12 03:46:22;;;;;;;;;22.50;17.50;;;;;12.40;63.97;102259.00;5074948;27;72456;-45
2022/11/12 03:48:47;;;;;;;;;19.50;15.00;;;;;12.34;63.91;102252.06;5074311;27;45529;-47
2022/11/12 03:51:15;;;;;;;;;16.00;14.00;;;;;12.33;64.02;102257.34;5079143;27;71012;-45
2022/11/12 03:53:40;;;;;;;;;16.75;15.00;;;;;12.25;64.23;102262.66;5075563;27;46357;-46
2022/11/12 03:56:06;;;;;;;;;14.75;14.00;;;;;12.24;64.18;102257.44;5071191;27;45517;-46
2022/11/12 03:58:31;;;;;;;;;18.25;15.50;;;;;12.21;64.03;102260.94;5075342;27;45502;-45
2022/11/12 04:00:56;;;;;;;;;18.50;15.00;;;;;12.17;64.16;102263.63;5070302;28;68382;-46
2022/11/12 04:03:22;;;;;;;;;17.00;15.50;;;;;12.11;64.30;102265.41;5078954;27;64335;-46
2022/11/12 04:08:37;;;;;;;;;14.75;11.75;;;;;12.10;64.71;102270.66;5075256;27;45377;-44
2022/11/12 04:11:15;;;;;;;;;19.50;16.75;;;;;12.11;64.31;102269.78;5077911;28;45254;-46
2022/11/12 04:13:41;;;;;;;;;18.25;15.25;;;;;12.10;64.45;102279.41;5076282;27;45412;-44
2022/11/12 04:21:50;;;;;;;;;15.50;14.00;;;;;12.11;64.79;102290.75;5074071;27;45400;-47
2022/11/12 04:27:01;;;;;;;;;14.25;14.25;;;;;12.14;64.70;102277.63;5073391;28;45268;-45
2022/11/12 04:32:11;;;;;;;;;14.75;12.25;;;;;12.18;64.26;102276.69;5078669;27;45449;-45
2022/11/12 04:34:36;;;;;;;;;20.00;14.50;;;;;12.13;64.00;102279.38;5071562;27;46357;-45
2022/11/12 04:37:05;;;;;;;;;17.25;13.50;;;;;12.08;64.48;102275.06;5072673;28;45437;-44
2022/11/12 04:39:30;;;;;;;;;19.50;17.00;;;;;12.07;64.55;102276.78;5067907;28;45418;-44
2022/11/12 04:47:26;;;;;;;;;22.50;19.00;;;;;12.08;64.73;102264.56;5090273;27;45429;-47
2022/11/12 04:49:52;;;;;;;;;25.00;19.75;;;;;12.09;64.40;102269.81;5079959;27;45480;-46
2022/11/12 04:52:17;;;;;;;;;22.75;18.00;;;;;12.10;64.53;102262.81;5069777;27;64805;-44
2022/11/12 04:54:42;;;;;;;;;20.50;15.25;;;;;12.10;64.44;102266.28;5074745;28;46025;-44
2022/11/12 04:57:08;;;;;;;;;19.00;15.25;;;;;12.13;64.68;102263.63;5063874;27;50226;-46
2022/11/12 04:59:33;;;;;;;;;21.50;16.75;;;;;12.18;64.60;102265.34;5072987;27;68344;-47
2022/11/12 05:01:59;;;;;;;;;20.25;19.25;;;;;12.18;64.52;102265.34;5071611;27;51276;-45
2022/11/12 05:04:28;;;;;;;;;20.00;15.50;;;;;12.19;64.61;102264.47;5077304;27;45424;-46
2022/11/12 05:06:56;;;;;;;;;21.00;16.00;;;;;12.20;64.20;102263.56;5066333;27;45943;-49
2022/11/12 05:09:25;;;;;;;;;17.25;16.75;;;;;12.21;64.17;102260.94;5061185;28;45249;-45
2022/11/12 05:11:51;;;;;;;;;17.25;14.50;;;;;12.18;63.82;102266.19;5072911;28;45474;-45
2022/11/12 05:14:16;;;;;;;;;18.25;14.00;;;;;12.11;63.81;102264.53;5070432;27;45494;-44
2022/11/12 05:16:43;;;;;;;;;12.50;10.25;;;;;12.04;64.46;102266.34;5069224;27;51192;-43
2022/11/12 05:19:09;;;;;;;;;18.25;14.50;;;;;12.00;64.26;102266.38;5078282;27;45273;-46
2022/11/12 05:24:18;;;;;;;;;20.50;16.00;;;;;12.00;64.41;102276.88;5077608;27;45884;-44
2022/11/12 05:26:43;;;;;;;;;19.50;17.25;;;;;12.00;64.95;102261.13;5073460;27;45478;-44
2022/11/12 05:29:09;;;;;;;;;18.00;16.25;;;;;12.01;64.32;102268.13;5075381;27;61454;-44
2022/11/12 05:31:34;;;;;;;;;21.50;19.50;;;;;12.04;64.35;102270.72;5067916;28;67403;-44
2022/11/12 05:33:59;;;;;;;;;19.75;16.25;;;;;12.07;64.76;102262.81;5079257;27;66956;-44
2022/11/12 05:36:25;;;;;;;;;17.75;15.00;;;;;12.10;64.54;102268.03;5077239;27;60520;-47
2022/11/12 05:38:50;;;;;;;;;17.50;17.25;;;;;12.11;64.55;102267.16;5077688;28;45346;-50
2022/11/12 05:41:16;;;;;;;;;18.75;14.75;;;;;12.10;64.36;102260.19;5076400;27;45350;-47
2022/11/12 05:43:41;;;;;;;;;18.50;17.50;;;;;12.13;64.25;102263.63;5071685;27;47862;-48
2022/11/12 05:46:07;;;;;;;;;19.75;15.00;;;;;12.17;64.11;102263.63;5075692;27;45398;-44
2022/11/12 05:48:32;;;;;;;;;18.00;15.00;;;;;12.18;64.01;102267.97;5076645;27;45361;-47
2022/11/12 05:50:57;;;;;;;;;20.75;17.75;;;;;12.20;64.30;102264.47;5060888;28;71239;-45
2022/11/12 05:53:23;;;;;;;;;20.50;18.25;;;;;12.21;64.44;102266.19;5077976;27;46219;-44
2022/11/12 05:55:48;;;;;;;;;16.75;15.25;;;;;12.23;63.81;102256.53;5074909;27;72302;-45
2022/11/12 05:58:13;;;;;;;;;7.75;3.00;;;;;12.26;63.93;102259.13;5070335;27;68275;-45
2022/11/12 06:00:39;;;;;;;;;18.75;16.00;;;;;12.27;63.99;102267.88;5068194;27;70347;-45
2022/11/12 06:03:05;;;;;;;;;15.50;14.25;;;;;12.23;63.78;102274.91;5074101;28;73782;-46
2022/11/12 06:05:34;;;;;;;;;19.00;15.75;;;;;12.15;63.54;102274.13;5066562;28;45261;-47
2022/11/12 06:08:00;;;;;;;;;14.00;12.50;;;;;12.07;63.74;102276.78;5075042;28;45346;-45
2022/11/12 06:10:26;;;;;;;;;22.75;17.25;;;;;12.01;63.77;102279.50;5090031;27;45524;-45
2022/11/12 06:12:52;;;;;;;;;18.00;15.00;;;;;11.93;63.88;102273.41;5072726;28;45239;-44
2022/11/12 06:15:18;;;;;;;;;17.50;13.50;;;;;11.90;64.07;102278.69;5074114;27;45291;-46
2022/11/12 06:17:43;;;;;;;;;13.75;12.50;;;;;11.88;64.08;102283.03;5081256;27;45507;-47
2022/11/12 06:20:09;;;;;;;;;19.75;13.75;;;;;11.87;64.20;102276.06;5078578;27;45516;-43
2022/11/12 06:22:34;;;;;;;;;15.50;12.25;;;;;11.87;64.29;102271.69;5086314;27;46111;-44
2022/11/12 06:25:00;;;;;;;;;16.00;15.00;;;;;11.87;64.62;102270.81;5080216;27;45459;-46
2022/11/12 06:27:25;;;;;;;;;20.50;14.00;;;;;11.88;64.16;102275.19;5076215;27;45364;-45
2022/11/12 06:29:51;;;;;;;;;19.75;16.25;;;;;11.89;64.54;102272.53;5070106;27;45484;-44
2022/11/12 06:32:17;;;;;;;;;18.75;16.00;;;;;11.92;64.34;102274.31;5072955;27;46131;-44
2022/11/12 06:34:42;;;;;;;;;17.50;14.00;;;;;11.95;64.22;102274.28;5066157;28;45468;-45
2022/11/12 06:37:07;;;;;;;;;21.00;16.75;;;;;11.99;64.19;102275.13;5069464;27;66250;-46
2022/11/12 06:39:33;;;;;;;;;16.00;12.25;;;;;12.01;64.01;102273.38;5079060;27;69891;-44
2022/11/12 06:41:58;;;;;;;;;15.25;14.75;;;;;12.01;63.91;102286.50;5075269;27;50203;-46
2022/11/12 06:44:23;;;;;;;;;18.25;16.00;;;;;12.01;64.19;102283.88;5070678;28;45465;-44
2022/11/12 06:46:49;;;;;;;;;17.50;15.00;;;;;12.03;64.20;102282.09;5067878;27;62924;-47
2022/11/12 06:49:14;;;;;;;;;18.00;15.25;;;;;12.04;63.88;102292.59;5081258;27;45508;-47
2022/11/12 06:51:40;;;;;;;;;18.00;16.00;;;;;12.04;63.78;102284.72;5069482;28;68960;-47
2022/11/12 06:54:05;;;;;;;;;17.50;14.00;;;;;12.02;64.13;102275.09;5079976;27;45318;-46
2022/11/12 06:56:31;;;;;;;;;15.50;15.00;;;;;11.99;63.95;102286.50;5080456;28;45291;-48
2022/11/12 06:58:56;;;;;;;;;12.50;12.00;;;;;11.99;64.21;102290.84;5081419;27;73294;-50
2022/11/12 07:01:22;;;;;;;;;18.25;12.75;;;;;12.02;64.33;102294.34;5077143;27;73930;-45
2022/11/12 07:03:50;;;;;;;;;18.00;16.00;;;;;12.04;63.89;102300.47;5081519;27;45319;-47
2022/11/12 07:06:19;;;;;;;;;14.75;13.00;;;;;12.03;64.22;102293.47;5081093;27;45507;-48
2022/11/12 07:08:48;;;;;;;;;14.25;13.00;;;;;12.09;64.18;102301.31;5073684;28;45493;-45
2022/11/12 07:11:14;;;;;;;;;14.00;13.50;;;;;12.13;64.16;102292.50;5068756;27;45462;-46
2022/11/12 07:13:39;;;;;;;;;16.00;13.75;;;;;12.14;63.75;102291.59;5083163;27;45391;-50
2022/11/12 07:16:06;;;;;;;;;20.00;16.00;;;;;12.18;63.71;102289.81;5070902;27;45393;-42
2022/11/12 07:18:33;;;;;;;;;17.50;14.50;;;;;12.22;63.50;102285.44;5073985;28;45326;-45
2022/11/12 07:21:01;;;;;;;;;16.25;14.25;;;;;12.22;63.47;102291.56;5071526;27;45686;-49
2022/11/12 07:23:28;;;;;;;;;15.75;13.75;;;;;12.22;63.49;102298.56;5077528;28;45947;-46
2022/11/12 07:26:04;;;;;;;;;19.75;16.25;;;;;12.25;63.58;102298.53;5078913;27;45450;-45
2022/11/12 07:28:29;;;;;;;;;20.00;17.50;;;;;12.26;63.39;102295.03;5068530;28;45398;-48
2022/11/12 07:31:05;;;;;;;;;18.75;17.25;;;;;12.26;63.34;102300.28;5072112;27;45885;-44
2022/11/12 07:33:31;;;;;;;;;21.50;18.50;;;;;12.26;63.07;102306.38;5068179;28;45296;-45
2022/11/12 07:36:00;;;;;;;;;22.25;18.00;;;;;12.28;63.44;102312.50;5075075;28;45468;-43
2022/11/12 07:38:27;;;;;;;;;21.25;18.00;;;;;12.29;63.22;102314.25;5074112;28;45283;-44
2022/11/12 07:41:00;;;;;;;;;19.25;17.00;;;;;12.30;63.36;102326.47;5076956;27;45610;-45
2022/11/12 07:43:27;;;;;;;;;19.50;16.00;;;;;12.31;63.34;102320.34;5075992;27;45239;-47
2022/11/12 07:45:52;;;;;;;;;19.00;16.50;;;;;12.30;63.37;102315.09;5070293;27;45495;-43
2022/11/12 07:48:17;;;;;;;;;16.25;13.75;;;;;12.30;63.38;102310.72;5066928;27;71353;-44
2022/11/12 07:50:42;;;;;;;;;13.50;13.50;;;;;12.31;63.47;102315.09;5062429;28;53057;-48
2022/11/12 07:53:08;;;;;;;;;19.75;16.00;;;;;12.31;63.37;102317.72;5068144;28;64631;-46
2022/11/12 07:55:33;;;;;;;;;19.00;15.50;;;;;12.31;63.35;102311.59;5071856;28;66597;-48
2022/11/12 07:57:59;;;;;;;;;17.50;15.25;;;;;12.31;63.02;102315.09;5069034;28;64537;-45
2022/11/12 08:00:24;;;;;;;;;17.75;13.50;;;;;12.27;63.07;102323.91;5076534;27;46875;-48
2022/11/12 08:02:49;;;;;;;;;13.50;12.00;;;;;12.25;63.18;102330.91;5070010;27;45304;-45
2022/11/12 08:05:15;;;;;;;;;17.50;16.00;;;;;12.27;63.62;102330.88;5071372;28;64935;-46
2022/11/12 08:07:40;;;;;;;;;16.75;14.25;;;;;12.29;63.33;102335.25;5080840;28;45876;-48
2022/11/12 08:10:06;;;;;;;;;15.00;13.75;;;;;12.33;63.72;102336.94;5087035;27;45392;-47
2022/11/12 08:12:32;;;;;;;;;15.75;15.75;;;;;12.39;63.49;102337.78;5068271;27;45816;-49
2022/11/12 08:14:57;;;;;;;;;20.25;17.00;;;;;12.37;63.28;102331.69;5064059;27;60930;-42
2022/11/12 08:17:22;;;;;;;;;18.00;15.00;;;;;12.41;63.29;102331.66;5074641;27;68647;-46
2022/11/12 08:19:48;;;;;;;;;16.75;14.75;;;;;12.44;63.09;102342.09;5070461;27;46104;-37
2022/11/12 08:22:14;;;;;;;;;19.25;15.50;;;;;12.44;63.23;102338.63;5076845;27;45225;-40
2022/11/12 08:24:39;;;;;;;;;17.75;14.00;;;;;12.47;63.67;102341.22;5065551;28;45366;-39
2022/11/12 08:27:04;;;;;;;;;19.75;16.50;;;;;12.52;63.21;102347.31;5078796;27;45531;-41
2022/11/12 08:29:30;;;;;;;;;17.00;16.00;;;;;12.57;63.30;102347.25;5075619;27;63199;-42
2022/11/12 08:31:55;;;;;;;;;15.50;13.75;;;;;12.59;63.31;102349.00;5076540;28;45279;-43
2022/11/12 08:34:20;;;;;;;;;19.00;18.00;;;;;12.64;62.97;102348.94;5071342;27;46027;-39
2022/11/12 08:36:46;;;;;;;;;24.00;18.25;;;;;12.67;62.90;102348.91;5068352;28;45588;-39
2022/11/12 08:39:11;;;;;;;;;20.75;17.75;;;;;12.70;63.20;102352.38;5076716;27;48519;-40
2022/11/12 08:41:36;;;;;;;;;23.25;18.75;;;;;12.70;62.72;102349.75;5078722;27;73074;-40
2022/11/12 08:44:02;;;;;;;;;18.00;16.25;;;;;12.70;62.92;102354.13;5079598;27;64153;-41
2022/11/12 08:46:27;;;;;;;;;24.25;17.00;;;;;12.75;63.10;102356.69;5066129;27;45402;-40
2022/11/12 08:48:53;;;;;;;;;21.25;17.50;;;;;12.79;62.63;102361.06;5064956;27;46935;-40
2022/11/12 08:51:18;;;;;;;;;19.00;16.25;;;;;12.84;62.98;102354.88;5056263;28;72581;-42
2022/11/12 08:53:43;;;;;;;;;21.25;18.50;;;;;12.89;62.66;102357.44;5069707;28;45401;-45
2022/11/12 08:56:09;;;;;;;;;23.50;19.25;;;;;12.95;62.55;102369.66;5077094;28;72502;-40
2022/11/12 08:58:34;;;;;;;;;17.75;16.50;;;;;12.99;62.41;102366.09;5083727;27;66210;-48
2022/11/12 09:01:04;;;;;;;;;17.75;15.25;;;;;13.03;62.66;102352.91;5071010;27;45327;-41
2022/11/12 09:03:30;;;;;;;;;18.75;18.00;;;;;13.07;62.67;102351.97;5075997;27;45505;-40
2022/11/12 09:05:55;;;;;;;;;22.25;19.00;;;;;13.07;62.27;102351.97;5075638;28;70444;-41
2022/11/12 09:08:23;;;;;;;;;20.00;17.75;;;;;13.06;61.96;102339.72;5075556;27;60264;-39
2022/11/12 09:10:49;;;;;;;;;18.25;18.25;;;;;13.08;62.28;102343.22;5072444;28;45637;-45
2022/11/12 09:13:17;;;;;;;;;22.00;20.00;;;;;13.10;62.41;102341.44;5084333;27;45568;-41
2022/11/12 09:15:42;;;;;;;;;16.00;13.75;;;;;13.13;61.94;102342.28;5067296;27;45465;-42
2022/11/12 09:18:12;;;;;;;;;17.00;15.75;;;;;13.14;62.25;102350.16;5075391;27;47384;-43
2022/11/12 09:20:37;;;;;;;;;20.25;16.25;;;;;13.14;62.27;102344.91;5069513;27;45914;-44
2022/11/12 09:23:08;;;;;;;;;20.50;19.00;;;;;13.11;62.08;102348.41;5068751;27;45428;-44
2022/11/12 09:25:35;;;;;;;;;20.00;19.00;;;;;13.13;61.69;102352.81;5068394;27;46433;-42
2022/11/12 09:28:15;;;;;;;;;23.50;19.75;;;;;13.13;61.95;102352.81;5071455;27;46904;-41
2022/11/12 09:30:43;;;;;;;;;20.75;17.50;;;;;13.09;61.83;102344.94;5074238;27;46039;-44
2022/11/12 09:33:08;;;;;;;;;23.00;19.00;;;;;13.10;61.68;102341.44;5063199;28;45495;-45
2022/11/12 09:35:34;;;;;;;;;25.75;23.25;;;;;13.13;61.74;102342.28;5076298;28;45243;-43
2022/11/12 09:37:59;;;;;;;;;19.75;18.00;;;;;13.15;61.87;102340.50;5072764;27;45233;-45
2022/11/12 09:40:36;;;;;;;;;28.50;19.50;;;;;13.11;61.90;102348.41;5075608;28;45259;-44
2022/11/12 09:43:09;;;;;;;;;24.50;19.50;;;;;13.14;61.69;102344.91;5076188;27;45576;-43
2022/11/12 09:45:35;;;;;;;;;21.75;20.75;;;;;13.20;61.89;102342.19;5069776;28;45420;-42
2022/11/12 09:48:05;;;;;;;;;23.00;21.25;;;;;13.25;61.70;102339.50;5078887;27;70879;-43
2022/11/12 09:50:33;;;;;;;;;23.25;21.00;;;;;13.32;61.66;102342.97;5083165;27;45381;-42
2022/11/12 09:53:23;;;;;;;;;21.75;18.25;;;;;13.40;61.77;102346.34;5081854;27;46097;-41
2022/11/12 09:55:49;;;;;;;;;21.75;19.75;;;;;13.42;61.55;102358.63;5069392;28;45728;-41
2022/11/12 09:58:16;;;;;;;;;26.50;20.75;;;;;13.46;61.81;102348.94;5068117;27;46140;-41
2022/11/12 10:00:55;;;;;;;;;24.25;19.25;;;;;13.48;61.64;102347.13;5080854;27;45296;-43
2022/11/12 10:03:33;;;;;;;;;22.00;21.25;;;;;13.54;61.38;102351.44;5081682;27;45439;-41
2022/11/12 10:06:19;;;;;;;;;27.00;23.00;;;;;13.58;61.76;102356.66;5081831;27;45386;-42
2022/11/12 10:08:50;;;;;;;;;37.25;29.75;;;;;13.64;61.62;102363.59;5073617;27;46179;-44
2022/11/12 10:11:28;;;;;;;;;45.00;33.75;;;;;13.68;61.55;102371.41;5072776;27;45453;-41
2022/11/12 10:14:10;;;;;;;;;26.25;19.50;;;;;13.73;61.67;102366.09;5083063;27;45397;-42
2022/11/12 10:16:52;;;;;;;;;34.00;27.00;;;;;13.78;61.17;102366.03;5081808;28;45310;-42
2022/11/12 10:19:39;;;;;;;;;26.50;24.50;;;;;13.83;61.67;102366.84;5074163;27;46115;-43
2022/11/12 10:22:32;;;;;;;;;32.25;27.50;;;;;13.86;61.46;102357.13;5071710;27;45190;-42
2022/11/12 10:25:01;;;;;;;;;27.25;24.50;;;;;13.89;61.43;102361.47;5081561;27;45443;-41
2022/11/12 10:27:35;;;;;;;;;32.75;26.75;;;;;13.92;61.47;102345.63;5088648;27;45476;-41
2022/11/12 10:30:04;;;;;;;;;25.50;24.25;;;;;13.97;61.24;102348.19;5081153;28;45421;-41
2022/11/12 10:32:29;;;;;;;;;29.00;25.00;;;;;14.01;61.28;102344.63;5082689;27;45322;-41
2022/11/12 10:34:55;;;;;;;;;29.50;25.50;;;;;14.08;60.90;102346.28;5080752;27;68241;-43
2022/11/12 10:37:24;;;;;;;;;34.25;28.50;;;;;14.14;61.13;102337.41;5082029;27;51699;-42
2022/11/12 10:39:50;;;;;;;;;25.00;21.50;;;;;14.17;60.81;102346.13;5081098;27;46346;-44
2022/11/12 10:42:17;;;;;;;;;31.00;26.75;;;;;14.20;61.06;102337.28;5073817;28;45416;-41
2022/11/12 10:44:43;;;;;;;;;29.50;25.00;;;;;14.24;60.82;102320.56;5082373;27;45304;-41
2022/11/12 10:47:25;;;;;;;;;27.00;25.00;;;;;14.28;60.78;102329.28;5085812;27;45541;-41
2022/11/12 10:50:28;;;;;;;;;29.50;24.00;;;;;14.32;60.63;102323.06;5076234;27;45309;-41
2022/11/12 10:53:00;;;;;;;;;30.00;26.25;;;;;14.30;60.57;102332.75;5076282;27;45258;-43
2022/11/12 10:55:34;;;;;;;;;35.00;25.00;;;;;14.29;60.89;102328.38;5081479;27;45442;-43
2022/11/12 10:58:08;;;;;;;;;29.75;25.75;;;;;14.32;60.46;102329.19;5077276;27;45472;-42
2022/11/12 11:00:35;;;;;;;;;25.50;22.00;;;;;14.36;60.60;102324.72;5076846;28;45660;-42
2022/11/12 11:03:15;;;;;;;;;31.75;25.25;;;;;14.41;60.44;102322.88;5076722;27;45422;-42
2022/11/12 11:05:50;;;;;;;;;36.25;26.25;;;;;14.46;60.60;102314.91;5075353;27;45256;-43
2022/11/12 11:08:37;;;;;;;;;27.00;26.50;;;;;14.52;60.63;102312.16;5078351;28;45608;-42
2022/11/12 11:11:15;;;;;;;;;29.25;28.50;;;;;14.55;60.26;102306.84;5073804;27;46704;-45
2022/11/12 11:13:40;;;;;;;;;33.25;29.50;;;;;14.60;60.43;102302.41;5081153;28;45281;-42
2022/11/12 11:16:07;;;;;;;;;30.50;29.25;;;;;14.63;60.37;102304.97;5078735;27;45318;-44
2022/11/12 11:18:36;;;;;;;;;30.75;28.75;;;;;14.67;60.41;102305.78;5075423;28;45727;-41
2022/11/12 11:21:04;;;;;;;;;36.75;30.00;;;;;14.69;60.10;102299.56;5078817;27;45433;-40
2022/11/12 11:23:35;;;;;;;;;34.25;29.50;;;;;14.72;60.05;102288.13;5076179;28;45916;-41
2022/11/12 11:26:15;;;;;;;;;35.50;32.00;;;;;14.75;59.97;102277.50;5081266;28;45228;-41
2022/11/12 11:29:11;;;;;;;;;36.00;30.00;;;;;14.78;59.70;102283.63;5065223;28;45324;-42
2022/11/12 11:32:00;;;;;;;;;36.50;30.25;;;;;14.82;59.58;102287.06;5077040;27;47137;-41
2022/11/12 11:34:45;;;;;;;;;34.25;30.75;;;;;14.88;59.75;102286.91;5066698;27;45264;-41